createdAt,value
2018-09-10T00:00:14.441Z,59.52
2018-09-10T00:00:46.041Z,59.64
2018-09-10T00:01:17.627Z,59.44
2018-09-10T00:01:49.225Z,59.34
2018-09-10T00:02:20.862Z,59.49
2018-09-10T00:02:52.451Z,59.58
2018-09-10T00:03:24.024Z,59.68
2018-09-10T00:03:55.607Z,59.59
2018-09-10T00:04:27.184Z,59.63
2018-09-10T00:04:58.769Z,59.86
2018-09-10T00:05:30.355Z,59.71
2018-09-10T00:06:01.953Z,59.66
2018-09-10T00:06:33.598Z,59.79
2018-09-10T00:07:05.183Z,59.96
2018-09-10T00:07:36.772Z,59.84
2018-09-10T00:08:08.359Z,60.11
2018-09-10T00:08:39.942Z,59.98
2018-09-10T00:09:11.520Z,59.87
2018-09-10T00:09:43.108Z,60.08
2018-09-10T00:10:14.682Z,59.84
2018-09-10T00:10:46.271Z,60.43
2018-09-10T00:11:17.870Z,60.13
2018-09-10T00:11:49.521Z,60.14
2018-09-10T00:12:21.098Z,60.43
2018-09-10T00:12:52.693Z,60.19
2018-09-10T00:13:24.289Z,60.32
2018-09-10T00:13:55.889Z,60.46
2018-09-10T00:14:27.478Z,60.41
2018-09-10T00:14:59.059Z,60.19
2018-09-10T00:15:30.643Z,60.19
2018-09-10T00:16:02.230Z,60.38
2018-09-10T00:16:33.830Z,60.50
2018-09-10T00:17:05.420Z,60.43
2018-09-10T00:17:37.007Z,60.57
2018-09-10T00:18:08.613Z,60.34
2018-09-10T00:18:40.239Z,60.56
2018-09-10T00:19:11.822Z,60.36
2018-09-10T00:19:43.398Z,60.26
2018-09-10T00:20:14.993Z,60.59
2018-09-10T00:20:46.579Z,60.58
2018-09-10T00:21:18.173Z,60.69
2018-09-10T00:21:49.775Z,60.72
2018-09-10T00:22:21.358Z,60.96
2018-09-10T00:22:52.957Z,61.29
2018-09-10T00:23:24.946Z,60.59
2018-09-10T00:23:56.523Z,60.72
2018-09-10T00:24:28.107Z,61.16
2018-09-10T00:24:59.701Z,61.23
2018-09-10T00:25:31.286Z,61.54
2018-09-10T00:26:02.871Z,61.82
2018-09-10T00:26:34.451Z,61.75
2018-09-10T00:27:06.038Z,61.48
2018-09-10T00:27:37.632Z,61.96
2018-09-10T00:28:09.201Z,61.98
2018-09-10T00:28:40.833Z,62.01
2018-09-10T00:29:12.405Z,62.05
2018-09-10T00:29:44.267Z,62.12
2018-09-10T00:30:16.300Z,62.23
2018-09-10T00:30:47.918Z,62.02
2018-09-10T00:31:19.503Z,61.66
2018-09-10T00:31:51.085Z,61.46
2018-09-10T00:32:22.689Z,61.40
2018-09-10T00:32:54.713Z,61.70
2018-09-10T00:33:26.639Z,61.50
2018-09-10T00:33:58.671Z,61.12
2018-09-10T00:34:30.265Z,61.56
2018-09-10T00:35:01.878Z,61.01
2018-09-10T00:35:33.479Z,61.01
2018-09-10T00:36:05.059Z,61.55
2018-09-10T00:36:36.696Z,60.94
2018-09-10T00:37:08.294Z,61.00
2018-09-10T00:37:39.879Z,61.22
2018-09-10T00:38:11.481Z,61.04
2018-09-10T00:38:43.081Z,61.28
2018-09-10T00:39:14.658Z,60.89
2018-09-10T00:39:46.243Z,61.17
2018-09-10T00:40:17.824Z,61.40
2018-09-10T00:40:49.418Z,61.00
2018-09-10T00:41:21.006Z,61.23
2018-09-10T00:41:52.587Z,60.89
2018-09-10T00:42:24.178Z,60.84
2018-09-10T00:42:55.782Z,60.75
2018-09-10T00:43:27.372Z,61.16
2018-09-10T00:43:58.959Z,61.16
2018-09-10T00:44:30.571Z,60.72
2018-09-10T00:45:02.167Z,60.96
2018-09-10T00:45:33.772Z,61.00
2018-09-10T00:46:05.350Z,60.95
2018-09-10T00:46:36.942Z,60.82
2018-09-10T00:47:08.527Z,60.73
2018-09-10T00:47:40.112Z,60.26
2018-09-10T00:48:11.696Z,61.06
2018-09-10T00:48:43.293Z,60.95
2018-09-10T00:49:14.927Z,60.81
2018-09-10T00:49:46.524Z,60.61
2018-09-10T00:50:18.149Z,61.00
2018-09-10T00:50:49.741Z,60.86
2018-09-10T00:51:21.341Z,60.98
2018-09-10T00:51:52.927Z,61.08
2018-09-10T00:52:24.517Z,61.08
2018-09-10T00:52:56.113Z,60.49
2018-09-10T00:53:27.699Z,60.93
2018-09-10T00:53:59.302Z,60.99
2018-09-10T00:54:30.931Z,60.78
2018-09-10T00:55:02.512Z,60.51
2018-09-10T00:55:34.093Z,60.77
2018-09-10T00:56:05.694Z,60.42
2018-09-10T00:56:37.280Z,60.83
2018-09-10T00:57:08.867Z,60.87
2018-09-10T00:57:40.451Z,61.10
2018-09-10T00:58:12.039Z,60.86
2018-09-10T00:58:43.722Z,60.62
2018-09-10T00:59:15.301Z,60.49
2018-09-10T00:59:47.275Z,60.48
2018-09-10T01:00:19.098Z,60.79
2018-09-10T01:00:50.714Z,60.87
2018-09-10T01:01:22.299Z,61.46
2018-09-10T01:01:53.869Z,60.74
2018-09-10T01:02:25.437Z,60.42
2018-09-10T01:02:57.042Z,60.75
2018-09-10T01:03:28.627Z,60.32
2018-09-10T01:04:00.212Z,60.38
2018-09-10T01:04:31.815Z,60.46
2018-09-10T01:05:03.434Z,60.40
2018-09-10T01:05:35.049Z,60.35
2018-09-10T01:06:06.666Z,60.18
2018-09-10T01:06:38.261Z,60.12
2018-09-10T01:07:09.843Z,60.30
2018-09-10T01:07:41.513Z,60.40
2018-09-10T01:08:13.205Z,60.43
2018-09-10T01:08:44.806Z,60.30
2018-09-10T01:09:16.479Z,60.19
2018-09-10T01:09:48.067Z,60.39
2018-09-10T01:10:19.651Z,60.25
2018-09-10T01:10:51.230Z,60.37
2018-09-10T01:11:22.817Z,60.21
2018-09-10T01:11:54.403Z,60.31
2018-09-10T01:12:25.984Z,60.33
2018-09-10T01:12:57.621Z,60.20
2018-09-10T01:13:29.217Z,61.10
2018-09-10T01:14:00.789Z,61.01
2018-09-10T01:14:32.382Z,61.06
2018-09-10T01:15:03.953Z,61.08
2018-09-10T01:15:35.550Z,60.93
2018-09-10T01:16:07.156Z,60.85
2018-09-10T01:16:38.736Z,60.53
2018-09-10T01:17:10.350Z,61.00
2018-09-10T01:17:41.935Z,60.31
2018-09-10T01:18:13.538Z,60.05
2018-09-10T01:18:45.191Z,60.66
2018-09-10T01:19:16.836Z,60.54
2018-09-10T01:19:48.409Z,60.79
2018-09-10T01:20:20.287Z,60.68
2018-09-10T01:20:52.065Z,60.68
2018-09-10T01:21:23.879Z,60.58
2018-09-10T01:21:55.449Z,60.77
2018-09-10T01:22:27.041Z,60.69
2018-09-10T01:22:58.627Z,60.29
2018-09-10T01:23:30.201Z,60.49
2018-09-10T01:24:01.794Z,60.44
2018-09-10T01:24:33.366Z,60.74
2018-09-10T01:25:04.965Z,60.45
2018-09-10T01:25:36.570Z,60.14
2018-09-10T01:26:08.319Z,60.43
2018-09-10T01:26:40.245Z,60.20
2018-09-10T01:27:12.072Z,60.25
2018-09-10T01:27:43.733Z,60.79
2018-09-10T01:28:15.301Z,60.46
2018-09-10T01:28:46.888Z,60.02
2018-09-10T01:29:18.475Z,59.99
2018-09-10T01:29:50.055Z,60.01
2018-09-10T01:30:21.643Z,59.98
2018-09-10T01:30:53.271Z,59.96
2018-09-10T01:31:24.838Z,59.85
2018-09-10T01:31:56.428Z,59.95
2018-09-10T01:32:28.024Z,59.91
2018-09-10T01:32:59.643Z,59.80
2018-09-10T01:33:31.235Z,59.87
2018-09-10T01:34:02.819Z,59.87
2018-09-10T01:34:49.296Z,60.01
2018-09-10T01:35:20.889Z,59.96
2018-09-10T01:35:52.844Z,59.91
2018-09-10T01:36:24.615Z,59.89
2018-09-10T01:36:56.213Z,59.84
2018-09-10T01:37:27.799Z,59.85
2018-09-10T01:37:59.397Z,59.96
2018-09-10T01:38:30.980Z,60.09
2018-09-10T01:39:02.570Z,59.83
2018-09-10T01:39:34.151Z,59.79
2018-09-10T01:40:05.738Z,59.76
2018-09-10T01:40:37.359Z,60.28
2018-09-10T01:41:08.947Z,60.46
2018-09-10T01:41:40.561Z,60.66
2018-09-10T01:42:12.154Z,60.17
2018-09-10T01:42:43.857Z,60.35
2018-09-10T01:43:15.435Z,60.44
2018-09-10T01:43:47.033Z,60.24
2018-09-10T01:44:18.639Z,60.40
2018-09-10T01:44:50.233Z,59.79
2018-09-10T01:45:21.845Z,59.46
2018-09-10T01:45:53.430Z,59.89
2018-09-10T01:46:25.002Z,60.19
2018-09-10T01:46:56.595Z,59.40
2018-09-10T01:47:28.223Z,59.78
2018-09-10T01:47:59.807Z,59.51
2018-09-10T01:48:31.402Z,59.37
2018-09-10T01:49:03.001Z,59.30
2018-09-10T01:49:34.601Z,59.41
2018-09-10T01:50:06.198Z,59.77
2018-09-10T01:50:37.823Z,59.37
2018-09-10T01:51:09.430Z,59.45
2018-09-10T01:51:41.020Z,60.20
2018-09-10T01:52:12.618Z,59.31
2018-09-10T01:52:44.243Z,59.35
2018-09-10T01:53:15.837Z,59.38
2018-09-10T01:53:47.411Z,59.48
2018-09-10T01:54:18.994Z,59.36
2018-09-10T01:54:50.619Z,59.46
2018-09-10T01:55:22.203Z,59.63
2018-09-10T01:55:53.844Z,59.27
2018-09-10T01:56:25.445Z,59.25
2018-09-10T01:56:57.042Z,59.42
2018-09-10T01:57:28.617Z,59.37
2018-09-10T01:58:00.201Z,59.08
2018-09-10T01:58:31.787Z,59.56
2018-09-10T01:59:03.386Z,59.85
2018-09-10T01:59:35.029Z,59.55
2018-09-10T02:00:06.615Z,59.52
2018-09-10T02:00:38.213Z,59.27
2018-09-10T02:01:09.811Z,59.23
2018-09-10T02:01:41.417Z,59.38
2018-09-10T02:02:13.018Z,59.50
2018-09-10T02:02:44.621Z,59.48
2018-09-10T02:03:16.215Z,59.46
2018-09-10T02:03:47.814Z,59.43
2018-09-10T02:04:19.405Z,59.81
2018-09-10T02:04:51.026Z,59.84
2018-09-10T02:05:22.631Z,59.77
2018-09-10T02:05:54.229Z,59.63
2018-09-10T02:06:25.815Z,59.67
2018-09-10T02:06:57.385Z,59.60
2018-09-10T02:07:28.968Z,59.70
2018-09-10T02:08:00.551Z,59.63
2018-09-10T02:08:32.154Z,59.69
2018-09-10T02:09:03.749Z,59.76
2018-09-10T02:09:35.329Z,59.48
2018-09-10T02:10:07.091Z,60.05
2018-09-10T02:10:38.675Z,59.84
2018-09-10T02:11:10.251Z,60.18
2018-09-10T02:11:41.817Z,59.85
2018-09-10T02:12:13.400Z,59.60
2018-09-10T02:12:44.987Z,59.39
2018-09-10T02:13:16.612Z,59.65
2018-09-10T02:13:48.209Z,59.47
2018-09-10T02:14:19.795Z,59.49
2018-09-10T02:14:51.368Z,59.47
2018-09-10T02:15:22.981Z,59.75
2018-09-10T02:15:54.611Z,59.57
2018-09-10T02:16:26.209Z,59.71
2018-09-10T02:16:57.804Z,59.64
2018-09-10T02:17:29.392Z,59.58
2018-09-10T02:18:00.980Z,59.82
2018-09-10T02:18:32.554Z,59.72
2018-09-10T02:19:04.132Z,59.78
2018-09-10T02:19:35.724Z,60.17
2018-09-10T02:20:07.327Z,60.25
2018-09-10T02:20:38.901Z,59.88
2018-09-10T02:21:10.486Z,59.77
2018-09-10T02:21:42.116Z,59.93
2018-09-10T02:22:13.709Z,59.48
2018-09-10T02:22:45.309Z,59.97
2018-09-10T02:23:16.906Z,59.75
2018-09-10T02:23:48.500Z,59.62
2018-09-10T02:24:20.097Z,59.11
2018-09-10T02:24:51.678Z,59.20
2018-09-10T02:25:23.245Z,59.12
2018-09-10T02:25:54.828Z,58.92
2018-09-10T02:26:26.414Z,59.04
2018-09-10T02:26:58.046Z,59.04
2018-09-10T02:27:29.743Z,58.98
2018-09-10T02:28:01.274Z,59.11
2018-09-10T02:28:32.856Z,58.96
2018-09-10T02:29:04.478Z,58.85
2018-09-10T02:29:36.065Z,58.95
2018-09-10T02:30:07.655Z,58.82
2018-09-10T02:30:39.239Z,58.84
2018-09-10T02:31:10.835Z,58.77
2018-09-10T02:31:42.430Z,58.78
2018-09-10T02:32:14.056Z,58.79
2018-09-10T02:32:45.633Z,58.82
2018-09-10T02:33:17.236Z,58.85
2018-09-10T02:33:48.829Z,58.72
2018-09-10T02:34:20.434Z,58.80
2018-09-10T02:34:52.037Z,58.77
2018-09-10T02:35:23.637Z,58.67
2018-09-10T02:35:55.230Z,58.88
2018-09-10T02:36:26.823Z,58.74
2018-09-10T02:36:58.447Z,58.78
2018-09-10T02:37:30.028Z,58.70
2018-09-10T02:38:01.612Z,58.74
2018-09-10T02:38:33.205Z,58.64
2018-09-10T02:39:04.800Z,58.71
2018-09-10T02:39:36.379Z,58.76
2018-09-10T02:40:07.968Z,58.63
2018-09-10T02:40:39.562Z,59.08
2018-09-10T02:41:11.144Z,59.72
2018-09-10T02:41:42.740Z,59.58
2018-09-10T02:42:14.314Z,59.19
2018-09-10T02:42:45.912Z,58.80
2018-09-10T02:43:17.543Z,58.70
2018-09-10T02:43:49.167Z,58.57
2018-09-10T02:44:20.756Z,58.77
2018-09-10T02:44:52.347Z,58.73
2018-09-10T02:45:23.918Z,58.58
2018-09-10T02:45:55.514Z,58.70
2018-09-10T02:46:27.100Z,58.79
2018-09-10T02:46:58.687Z,58.77
2018-09-10T02:47:30.257Z,58.76
2018-09-10T02:48:01.874Z,58.79
2018-09-10T02:48:33.449Z,58.76
2018-09-10T02:49:05.042Z,58.74
2018-09-10T02:49:36.637Z,58.71
2018-09-10T02:50:08.264Z,58.67
2018-09-10T02:50:39.852Z,58.64
2018-09-10T02:51:11.432Z,58.58
2018-09-10T02:51:43.010Z,58.68
2018-09-10T02:52:14.600Z,58.71
2018-09-10T02:52:46.193Z,58.75
2018-09-10T02:53:17.779Z,58.25
2018-09-10T02:53:49.375Z,58.70
2018-09-10T02:54:20.979Z,57.97
2018-09-10T02:54:52.615Z,58.22
2018-09-10T02:55:24.200Z,58.45
2018-09-10T02:55:55.783Z,58.50
2018-09-10T02:56:27.377Z,58.46
2018-09-10T02:56:58.949Z,58.44
2018-09-10T02:57:30.518Z,58.41
2018-09-10T02:58:02.099Z,58.30
2018-09-10T02:58:33.698Z,58.45
2018-09-10T02:59:05.294Z,58.64
2018-09-10T02:59:36.896Z,58.44
2018-09-10T03:00:08.519Z,58.56
2018-09-10T03:00:40.090Z,58.55
2018-09-10T03:01:11.675Z,58.33
2018-09-10T03:01:43.263Z,58.32
2018-09-10T03:02:14.848Z,58.53
2018-09-10T03:02:46.449Z,58.39
2018-09-10T03:03:18.029Z,58.39
2018-09-10T03:03:49.633Z,57.87
2018-09-10T03:04:21.234Z,58.36
2018-09-10T03:04:52.820Z,58.50
2018-09-10T03:05:24.452Z,58.35
2018-09-10T03:05:56.044Z,58.28
2018-09-10T03:06:27.650Z,58.13
2018-09-10T03:06:59.585Z,58.20
2018-09-10T03:07:31.177Z,58.16
2018-09-10T03:08:02.767Z,58.10
2018-09-10T03:08:34.366Z,58.19
2018-09-10T03:09:05.952Z,58.53
2018-09-10T03:09:37.539Z,58.43
2018-09-10T03:10:09.126Z,58.29
2018-09-10T03:10:40.716Z,58.30
2018-09-10T03:11:12.317Z,58.30
2018-09-10T03:11:43.922Z,58.20
2018-09-10T03:12:15.520Z,58.21
2018-09-10T03:12:47.117Z,58.17
2018-09-10T03:13:18.702Z,58.17
2018-09-10T03:13:50.282Z,58.22
2018-09-10T03:14:21.890Z,58.19
2018-09-10T03:14:53.488Z,58.12
2018-09-10T03:15:25.117Z,58.17
2018-09-10T03:15:56.731Z,58.22
2018-09-10T03:16:28.329Z,58.03
2018-09-10T03:16:59.925Z,58.02
2018-09-10T03:17:31.530Z,58.03
2018-09-10T03:18:03.231Z,57.97
2018-09-10T03:18:34.737Z,57.93
2018-09-10T03:19:06.315Z,58.01
2018-09-10T03:19:37.909Z,58.00
2018-09-10T03:20:09.502Z,57.95
2018-09-10T03:20:41.131Z,57.99
2018-09-10T03:21:12.720Z,57.81
2018-09-10T03:21:44.348Z,57.90
2018-09-10T03:22:15.941Z,57.80
2018-09-10T03:22:47.527Z,57.79
2018-09-10T03:23:19.126Z,57.75
2018-09-10T03:23:50.729Z,57.79
2018-09-10T03:24:22.302Z,57.79
2018-09-10T03:24:53.892Z,57.73
2018-09-10T03:25:25.476Z,57.72
2018-09-10T03:25:57.073Z,57.62
2018-09-10T03:26:28.659Z,57.66
2018-09-10T03:27:00.283Z,57.61
2018-09-10T03:27:31.877Z,57.73
2018-09-10T03:28:03.462Z,57.66
2018-09-10T03:28:35.062Z,57.61
2018-09-10T03:29:06.633Z,57.58
2018-09-10T03:29:38.230Z,57.57
2018-09-10T03:30:09.825Z,57.60
2018-09-10T03:30:41.413Z,57.63
2018-09-10T03:31:13.017Z,57.58
2018-09-10T03:31:44.647Z,57.64
2018-09-10T03:32:16.232Z,57.50
2018-09-10T03:32:47.819Z,57.55
2018-09-10T03:33:19.399Z,57.42
2018-09-10T03:33:51.001Z,57.49
2018-09-10T03:34:22.645Z,57.50
2018-09-10T03:34:54.239Z,57.53
2018-09-10T03:35:25.827Z,57.46
2018-09-10T03:35:57.412Z,57.42
2018-09-10T03:36:28.996Z,57.51
2018-09-10T03:37:00.624Z,57.39
2018-09-10T03:37:32.221Z,57.42
2018-09-10T03:38:03.797Z,57.36
2018-09-10T03:38:35.399Z,57.41
2018-09-10T03:39:07.035Z,57.39
2018-09-10T03:39:38.645Z,57.42
2018-09-10T03:40:10.237Z,57.31
2018-09-10T03:40:41.842Z,57.43
2018-09-10T03:41:13.447Z,57.37
2018-09-10T03:41:45.532Z,57.35
2018-09-10T03:42:17.461Z,57.29
2018-09-10T03:42:49.049Z,57.26
2018-09-10T03:43:20.649Z,57.18
2018-09-10T03:43:52.250Z,57.19
2018-09-10T03:44:23.845Z,57.15
2018-09-10T03:44:55.446Z,57.26
2018-09-10T03:45:27.031Z,57.06
2018-09-10T03:45:58.622Z,57.13
2018-09-10T03:46:30.213Z,57.11
2018-09-10T03:47:01.849Z,57.08
2018-09-10T03:47:33.423Z,57.19
2018-09-10T03:48:05.055Z,57.13
2018-09-10T03:48:36.640Z,57.03
2018-09-10T03:49:08.224Z,57.06
2018-09-10T03:49:39.830Z,57.13
2018-09-10T03:50:11.410Z,57.06
2018-09-10T03:50:43.290Z,57.06
2018-09-10T03:51:15.225Z,57.02
2018-09-10T03:51:46.830Z,57.04
2018-09-10T03:52:18.434Z,56.99
2018-09-10T03:52:50.019Z,56.94
2018-09-10T03:53:21.643Z,56.97
2018-09-10T03:53:53.301Z,57.00
2018-09-10T03:54:24.897Z,56.92
2018-09-10T03:54:56.523Z,56.99
2018-09-10T03:55:28.117Z,56.95
2018-09-10T03:55:59.699Z,56.88
2018-09-10T03:56:31.292Z,56.89
2018-09-10T03:57:02.889Z,56.89
2018-09-10T03:57:34.472Z,56.97
2018-09-10T03:58:06.065Z,56.87
2018-09-10T03:58:37.709Z,56.88
2018-09-10T03:59:09.311Z,56.96
2018-09-10T03:59:40.900Z,56.81
2018-09-10T04:00:12.484Z,56.83
2018-09-10T04:00:44.086Z,56.74
2018-09-10T04:01:15.675Z,56.78
2018-09-10T04:01:47.280Z,56.78
2018-09-10T04:02:18.874Z,56.84
2018-09-10T04:02:50.473Z,56.73
2018-09-10T04:03:22.060Z,56.83
2018-09-10T04:03:53.673Z,56.83
2018-09-10T04:04:25.267Z,56.67
2018-09-10T04:04:56.870Z,56.71
2018-09-10T04:05:28.473Z,56.72
2018-09-10T04:06:00.082Z,56.66
2018-09-10T04:06:31.676Z,56.62
2018-09-10T04:07:03.259Z,56.62
2018-09-10T04:07:34.843Z,56.76
2018-09-10T04:08:06.580Z,56.73
2018-09-10T04:08:38.236Z,56.53
2018-09-10T04:09:09.834Z,56.78
2018-09-10T04:09:41.462Z,56.71
2018-09-10T04:10:13.114Z,56.57
2018-09-10T04:10:44.704Z,56.51
2018-09-10T04:11:16.290Z,56.63
2018-09-10T04:11:47.875Z,56.50
2018-09-10T04:12:19.469Z,56.51
2018-09-10T04:12:51.073Z,56.51
2018-09-10T04:13:22.677Z,56.55
2018-09-10T04:13:54.259Z,56.60
2018-09-10T04:14:25.853Z,56.61
2018-09-10T04:14:57.446Z,56.53
2018-09-10T04:15:29.082Z,56.51
2018-09-10T04:16:00.668Z,56.45
2018-09-10T04:16:32.257Z,56.57
2018-09-10T04:17:03.869Z,56.59
2018-09-10T04:17:35.469Z,56.48
2018-09-10T04:18:07.069Z,56.43
2018-09-10T04:18:38.642Z,56.44
2018-09-10T04:19:10.241Z,56.49
2018-09-10T04:19:41.873Z,56.43
2018-09-10T04:20:13.473Z,56.50
2018-09-10T04:20:45.103Z,56.48
2018-09-10T04:21:16.698Z,56.52
2018-09-10T04:21:48.294Z,56.48
2018-09-10T04:22:19.888Z,56.47
2018-09-10T04:22:51.465Z,56.44
2018-09-10T04:23:23.050Z,56.40
2018-09-10T04:23:54.639Z,56.40
2018-09-10T04:24:26.228Z,56.23
2018-09-10T04:24:57.824Z,56.32
2018-09-10T04:25:29.469Z,56.36
2018-09-10T04:26:01.138Z,56.34
2018-09-10T04:26:32.689Z,56.28
2018-09-10T04:27:04.289Z,56.29
2018-09-10T04:27:35.878Z,56.25
2018-09-10T04:28:07.473Z,56.34
2018-09-10T04:28:39.059Z,56.25
2018-09-10T04:29:10.644Z,56.23
2018-09-10T04:29:42.238Z,56.34
2018-09-10T04:30:13.827Z,56.25
2018-09-10T04:30:45.459Z,56.26
2018-09-10T04:31:17.038Z,56.13
2018-09-10T04:31:48.623Z,56.16
2018-09-10T04:32:20.209Z,56.20
2018-09-10T04:32:51.793Z,56.25
2018-09-10T04:33:23.371Z,56.15
2018-09-10T04:33:54.958Z,56.11
2018-09-10T04:34:26.543Z,56.12
2018-09-10T04:34:58.127Z,56.18
2018-09-10T04:35:29.715Z,56.30
2018-09-10T04:36:01.398Z,56.25
2018-09-10T04:36:32.995Z,56.13
2018-09-10T04:37:04.589Z,56.13
2018-09-10T04:37:36.175Z,56.10
2018-09-10T04:38:07.769Z,56.16
2018-09-10T04:38:39.355Z,56.07
2018-09-10T04:39:10.949Z,56.08
2018-09-10T04:39:42.535Z,56.10
2018-09-10T04:40:14.120Z,56.08
2018-09-10T04:40:45.726Z,56.08
2018-09-10T04:41:17.363Z,56.08
2018-09-10T04:41:48.973Z,56.10
2018-09-10T04:42:20.631Z,56.14
2018-09-10T04:42:52.226Z,56.03
2018-09-10T04:43:23.829Z,56.04
2018-09-10T04:43:55.432Z,55.99
2018-09-10T04:44:27.035Z,56.01
2018-09-10T04:44:58.623Z,55.90
2018-09-10T04:45:30.208Z,56.06
2018-09-10T04:46:01.809Z,55.92
2018-09-10T04:46:33.436Z,55.95
2018-09-10T04:47:05.040Z,56.00
2018-09-10T04:47:36.641Z,55.91
2018-09-10T04:48:08.214Z,56.06
2018-09-10T04:48:39.807Z,55.90
2018-09-10T04:49:11.454Z,55.98
2018-09-10T04:49:43.619Z,55.96
2018-09-10T04:50:15.371Z,55.90
2018-09-10T04:50:46.961Z,55.91
2018-09-10T04:51:18.557Z,55.83
2018-09-10T04:51:50.140Z,55.77
2018-09-10T04:52:21.738Z,56.01
2018-09-10T04:52:53.328Z,55.86
2018-09-10T04:53:24.929Z,55.83
2018-09-10T04:53:56.525Z,55.77
2018-09-10T04:54:28.108Z,55.78
2018-09-10T04:54:59.689Z,55.85
2018-09-10T04:55:31.272Z,55.74
2018-09-10T04:56:02.868Z,55.80
2018-09-10T04:56:34.452Z,55.84
2018-09-10T04:57:06.044Z,55.86
2018-09-10T04:57:37.629Z,55.78
2018-09-10T04:58:09.305Z,55.80
2018-09-10T04:58:40.922Z,55.76
2018-09-10T04:59:12.527Z,55.79
2018-09-10T04:59:44.165Z,55.76
2018-09-10T05:00:15.764Z,55.73
2018-09-10T05:00:47.362Z,55.67
2018-09-10T05:01:18.958Z,55.71
2018-09-10T05:01:50.611Z,55.89
2018-09-10T05:02:22.457Z,55.81
2018-09-10T05:02:54.080Z,55.73
2018-09-10T05:03:25.679Z,55.65
2018-09-10T05:03:57.305Z,55.75
2018-09-10T05:04:28.883Z,55.64
2018-09-10T05:05:00.478Z,55.73
2018-09-10T05:05:32.073Z,55.76
2018-09-10T05:06:03.659Z,55.81
2018-09-10T05:06:35.257Z,55.67
2018-09-10T05:07:06.844Z,55.57
2018-09-10T05:07:38.444Z,55.55
2018-09-10T05:08:10.031Z,55.74
2018-09-10T05:08:41.629Z,55.62
2018-09-10T05:09:13.256Z,55.64
2018-09-10T05:09:44.902Z,55.60
2018-09-10T05:10:16.510Z,55.64
2018-09-10T05:10:48.100Z,55.68
2018-09-10T05:11:19.710Z,55.57
2018-09-10T05:11:51.296Z,55.64
2018-09-10T05:12:22.880Z,55.59
2018-09-10T05:12:54.476Z,55.60
2018-09-10T05:13:26.067Z,55.57
2018-09-10T05:13:57.670Z,55.69
2018-09-10T05:14:29.278Z,55.61
2018-09-10T05:15:00.908Z,55.58
2018-09-10T05:15:32.490Z,55.53
2018-09-10T05:16:04.127Z,55.59
2018-09-10T05:16:35.712Z,55.51
2018-09-10T05:17:07.287Z,55.58
2018-09-10T05:17:38.872Z,55.58
2018-09-10T05:18:10.461Z,55.52
2018-09-10T05:18:42.054Z,55.44
2018-09-10T05:19:13.639Z,55.45
2018-09-10T05:19:45.213Z,55.50
2018-09-10T05:20:16.867Z,55.48
2018-09-10T05:20:48.483Z,55.54
2018-09-10T05:21:20.126Z,55.49
2018-09-10T05:21:51.729Z,55.49
2018-09-10T05:22:23.327Z,55.49
2018-09-10T05:22:54.926Z,55.57
2018-09-10T05:23:26.498Z,55.49
2018-09-10T05:23:58.107Z,55.49
2018-09-10T05:24:29.701Z,55.47
2018-09-10T05:25:01.292Z,55.49
2018-09-10T05:25:32.879Z,55.45
2018-09-10T05:26:04.538Z,55.47
2018-09-10T05:26:36.107Z,55.44
2018-09-10T05:27:07.744Z,55.40
2018-09-10T05:27:39.347Z,55.52
2018-09-10T05:28:10.975Z,55.48
2018-09-10T05:28:42.542Z,55.50
2018-09-10T05:29:14.128Z,55.49
2018-09-10T05:29:45.702Z,55.65
2018-09-10T05:30:17.307Z,55.42
2018-09-10T05:30:48.897Z,55.39
2018-09-10T05:31:20.483Z,55.44
2018-09-10T05:31:52.065Z,55.45
2018-09-10T05:32:23.710Z,55.37
2018-09-10T05:32:55.314Z,55.33
2018-09-10T05:33:26.900Z,55.39
2018-09-10T05:33:58.553Z,55.37
2018-09-10T05:34:30.139Z,55.37
2018-09-10T05:35:01.727Z,55.34
2018-09-10T05:35:33.325Z,55.38
2018-09-10T05:36:04.925Z,55.33
2018-09-10T05:36:36.529Z,55.32
2018-09-10T05:37:08.116Z,55.35
2018-09-10T05:37:39.709Z,55.41
2018-09-10T05:38:11.310Z,55.39
2018-09-10T05:38:42.903Z,55.38
2018-09-10T05:39:14.488Z,55.33
2018-09-10T05:39:46.054Z,55.34
2018-09-10T05:40:17.653Z,55.33
2018-09-10T05:40:49.253Z,55.47
2018-09-10T05:41:20.849Z,55.38
2018-09-10T05:41:52.455Z,55.32
2018-09-10T05:42:24.038Z,55.33
2018-09-10T05:42:55.634Z,55.36
2018-09-10T05:43:27.234Z,55.32
2018-09-10T05:43:58.839Z,55.29
2018-09-10T05:44:30.482Z,55.30
2018-09-10T05:45:02.067Z,55.31
2018-09-10T05:45:33.652Z,55.33
2018-09-10T05:46:05.249Z,55.32
2018-09-10T05:46:36.849Z,55.35
2018-09-10T05:47:08.477Z,55.37
2018-09-10T05:47:40.093Z,55.34
2018-09-10T05:48:11.672Z,55.37
2018-09-10T05:48:43.266Z,55.37
2018-09-10T05:49:14.869Z,55.34
2018-09-10T05:49:46.470Z,55.33
2018-09-10T05:50:18.055Z,55.32
2018-09-10T05:50:49.662Z,55.32
2018-09-10T05:51:21.261Z,55.33
2018-09-10T05:51:52.850Z,55.33
2018-09-10T05:52:24.464Z,55.31
2018-09-10T05:52:56.052Z,55.37
2018-09-10T05:53:27.627Z,55.32
2018-09-10T05:53:59.212Z,55.32
2018-09-10T05:54:30.814Z,55.31
2018-09-10T05:55:02.460Z,55.31
2018-09-10T05:55:34.106Z,55.31
2018-09-10T05:56:05.659Z,55.27
2018-09-10T05:56:37.243Z,55.29
2018-09-10T05:57:08.828Z,55.30
2018-09-10T05:57:40.432Z,55.29
2018-09-10T05:58:12.078Z,55.29
2018-09-10T05:58:43.667Z,55.23
2018-09-10T05:59:15.261Z,55.24
2018-09-10T05:59:46.886Z,55.29
2018-09-10T06:00:18.486Z,55.30
2018-09-10T06:00:50.271Z,55.29
2018-09-10T06:01:21.861Z,55.32
2018-09-10T06:01:53.448Z,55.30
2018-09-10T06:02:25.041Z,55.35
2018-09-10T06:02:56.642Z,55.32
2018-09-10T06:03:28.228Z,55.28
2018-09-10T06:03:59.826Z,55.28
2018-09-10T06:04:31.401Z,55.28
2018-09-10T06:05:03.003Z,55.30
2018-09-10T06:05:34.631Z,55.36
2018-09-10T06:06:06.228Z,55.33
2018-09-10T06:06:37.828Z,55.31
2018-09-10T06:07:09.430Z,55.35
2018-09-10T06:07:41.015Z,55.36
2018-09-10T06:08:12.617Z,55.33
2018-09-10T06:08:44.223Z,55.38
2018-09-10T06:09:15.823Z,55.39
2018-09-10T06:09:47.452Z,55.38
2018-09-10T06:10:19.085Z,55.38
2018-09-10T06:10:50.662Z,55.42
2018-09-10T06:11:22.265Z,55.39
2018-09-10T06:11:53.864Z,55.43
2018-09-10T06:12:25.492Z,55.41
2018-09-10T06:12:57.075Z,55.42
2018-09-10T06:13:28.678Z,55.43
2018-09-10T06:14:00.282Z,55.41
2018-09-10T06:14:31.871Z,55.44
2018-09-10T06:15:03.474Z,55.45
2018-09-10T06:15:35.060Z,55.45
2018-09-10T06:16:06.666Z,55.47
2018-09-10T06:16:38.271Z,55.51
2018-09-10T06:17:09.920Z,55.48
2018-09-10T06:17:41.493Z,55.48
2018-09-10T06:18:13.095Z,55.48
2018-09-10T06:18:44.684Z,55.47
2018-09-10T06:19:16.271Z,55.50
2018-09-10T06:19:47.868Z,55.47
2018-09-10T06:20:19.464Z,55.50
2018-09-10T06:20:51.058Z,55.49
2018-09-10T06:21:22.657Z,55.51
2018-09-10T06:21:54.269Z,55.51
2018-09-10T06:22:25.902Z,55.49
2018-09-10T06:22:57.645Z,55.50
2018-09-10T06:23:29.415Z,55.54
2018-09-10T06:24:01.009Z,55.51
2018-09-10T06:24:32.607Z,55.49
2018-09-10T06:25:04.205Z,55.49
2018-09-10T06:25:35.809Z,55.51
2018-09-10T06:26:07.409Z,55.51
2018-09-10T06:26:39.010Z,55.53
2018-09-10T06:27:10.606Z,55.57
2018-09-10T06:27:42.232Z,55.56
2018-09-10T06:28:13.842Z,55.57
2018-09-10T06:28:45.427Z,55.58
2018-09-10T06:29:17.022Z,55.60
2018-09-10T06:29:48.612Z,55.55
2018-09-10T06:30:20.212Z,55.55
2018-09-10T06:30:51.811Z,55.60
2018-09-10T06:31:23.395Z,55.61
2018-09-10T06:31:54.990Z,55.59
2018-09-10T06:32:26.629Z,55.64
2018-09-10T06:32:58.271Z,55.72
2018-09-10T06:33:29.860Z,55.61
2018-09-10T06:34:01.501Z,55.68
2018-09-10T06:34:33.089Z,55.65
2018-09-10T06:35:04.679Z,55.71
2018-09-10T06:35:36.275Z,55.71
2018-09-10T06:36:07.865Z,55.69
2018-09-10T06:36:39.441Z,55.72
2018-09-10T06:37:11.046Z,55.74
2018-09-10T06:37:42.637Z,55.78
2018-09-10T06:38:14.263Z,55.77
2018-09-10T06:38:45.891Z,55.70
2018-09-10T06:39:17.493Z,55.77
2018-09-10T06:39:49.079Z,55.78
2018-09-10T06:40:20.663Z,55.72
2018-09-10T06:40:52.260Z,55.76
2018-09-10T06:41:23.862Z,55.79
2018-09-10T06:41:55.465Z,55.78
2018-09-10T06:42:27.054Z,55.78
2018-09-10T06:42:58.643Z,55.78
2018-09-10T06:43:30.218Z,55.78
2018-09-10T06:44:01.804Z,55.81
2018-09-10T06:44:33.405Z,55.81
2018-09-10T06:45:05.001Z,55.81
2018-09-10T06:45:36.597Z,55.90
2018-09-10T06:46:08.188Z,55.88
2018-09-10T06:46:39.829Z,55.84
2018-09-10T06:47:11.429Z,55.85